sensor_id;sensor_type;location;lat;lon;timestamp;P1;durP1;ratioP1;P2;durP2;ratioP2
1691;SDS011;843;52.054;8.552;2023-03-23T00:00:47;4.70;;;2.80;;
1691;SDS011;843;52.054;8.552;2023-03-23T00:03:14;5.97;;;3.57;;
1691;SDS011;843;52.054;8.552;2023-03-23T00:05:40;6.70;;;3.27;;
1691;SDS011;843;52.054;8.552;2023-03-23T00:08:14;5.80;;;3.10;;
1691;SDS011;843;52.054;8.552;2023-03-23T00:10:42;12.07;;;3.40;;
1691;SDS011;843;52.054;8.552;2023-03-23T00:13:09;7.23;;;3.63;;
1691;SDS011;843;52.054;8.552;2023-03-23T00:15:36;7.57;;;3.40;;
1691;SDS011;843;52.054;8.552;2023-03-23T00:18:06;6.63;;;3.43;;
1691;SDS011;843;52.054;8.552;2023-03-23T00:20:32;5.43;;;3.33;;
1691;SDS011;843;52.054;8.552;2023-03-23T00:23:05;6.37;;;3.70;;
1691;SDS011;843;52.054;8.552;2023-03-23T00:25:31;8.23;;;4.00;;
1691;SDS011;843;52.054;8.552;2023-03-23T00:27:59;5.67;;;3.33;;
1691;SDS011;843;52.054;8.552;2023-03-23T00:30:27;5.53;;;3.37;;
1691;SDS011;843;52.054;8.552;2023-03-23T00:32:54;5.47;;;3.67;;
1691;SDS011;843;52.054;8.552;2023-03-23T00:35:21;5.07;;;3.53;;
1691;SDS011;843;52.054;8.552;2023-03-23T00:37:47;3.77;;;3.07;;
1691;SDS011;843;52.054;8.552;2023-03-23T00:40:14;7.33;;;3.20;;
1691;SDS011;843;52.054;8.552;2023-03-23T00:42:41;4.83;;;3.27;;
1691;SDS011;843;52.054;8.552;2023-03-23T00:45:10;4.43;;;2.87;;
1691;SDS011;843;52.054;8.552;2023-03-23T00:47:36;4.20;;;3.33;;
1691;SDS011;843;52.054;8.552;2023-03-23T00:50:03;8.87;;;3.07;;
1691;SDS011;843;52.054;8.552;2023-03-23T00:52:30;4.60;;;3.70;;
1691;SDS011;843;52.054;8.552;2023-03-23T00:54:57;6.70;;;3.90;;
1691;SDS011;843;52.054;8.552;2023-03-23T00:57:23;5.20;;;4.00;;
1691;SDS011;843;52.054;8.552;2023-03-23T00:59:50;6.33;;;3.10;;
1691;SDS011;843;52.054;8.552;2023-03-23T01:02:18;4.87;;;3.60;;
1691;SDS011;843;52.054;8.552;2023-03-23T01:04:44;6.97;;;3.83;;
1691;SDS011;843;52.054;8.552;2023-03-23T01:07:11;7.30;;;4.00;;
1691;SDS011;843;52.054;8.552;2023-03-23T01:09:38;10.70;;;3.47;;
1691;SDS011;843;52.054;8.552;2023-03-23T01:12:05;8.43;;;3.97;;
1691;SDS011;843;52.054;8.552;2023-03-23T01:14:32;4.53;;;3.23;;
1691;SDS011;843;52.054;8.552;2023-03-23T01:16:58;4.20;;;3.47;;
1691;SDS011;843;52.054;8.552;2023-03-23T01:19:26;5.03;;;4.00;;
1691;SDS011;843;52.054;8.552;2023-03-23T01:21:52;7.07;;;4.00;;
1691;SDS011;843;52.054;8.552;2023-03-23T01:24:19;5.23;;;3.80;;
1691;SDS011;843;52.054;8.552;2023-03-23T01:26:45;5.87;;;3.80;;
1691;SDS011;843;52.054;8.552;2023-03-23T01:29:12;8.73;;;3.87;;
1691;SDS011;843;52.054;8.552;2023-03-23T01:31:38;4.47;;;3.67;;
1691;SDS011;843;52.054;8.552;2023-03-23T01:34:05;6.57;;;4.00;;
1691;SDS011;843;52.054;8.552;2023-03-23T01:36:32;5.03;;;3.17;;
1691;SDS011;843;52.054;8.552;2023-03-23T01:38:59;5.50;;;3.03;;
1691;SDS011;843;52.054;8.552;2023-03-23T01:41:28;5.13;;;2.83;;
1691;SDS011;843;52.054;8.552;2023-03-23T01:44:00;5.70;;;3.87;;
1691;SDS011;843;52.054;8.552;2023-03-23T01:46:27;9.03;;;3.80;;
1691;SDS011;843;52.054;8.552;2023-03-23T01:48:55;5.03;;;3.40;;
1691;SDS011;843;52.054;8.552;2023-03-23T01:51:23;5.10;;;3.30;;
1691;SDS011;843;52.054;8.552;2023-03-23T01:53:52;5.43;;;3.43;;
1691;SDS011;843;52.054;8.552;2023-03-23T01:56:22;5.40;;;3.60;;
1691;SDS011;843;52.054;8.552;2023-03-23T01:58:50;5.33;;;3.13;;
1691;SDS011;843;52.054;8.552;2023-03-23T02:01:17;5.30;;;2.67;;
1691;SDS011;843;52.054;8.552;2023-03-23T02:03:44;3.90;;;2.67;;
1691;SDS011;843;52.054;8.552;2023-03-23T02:06:13;3.10;;;2.53;;
1691;SDS011;843;52.054;8.552;2023-03-23T02:08:39;3.60;;;2.90;;
1691;SDS011;843;52.054;8.552;2023-03-23T02:11:16;3.40;;;3.10;;
1691;SDS011;843;52.054;8.552;2023-03-23T02:13:42;3.47;;;2.97;;
1691;SDS011;843;52.054;8.552;2023-03-23T02:16:10;3.80;;;2.57;;
1691;SDS011;843;52.054;8.552;2023-03-23T02:18:44;3.57;;;3.17;;
1691;SDS011;843;52.054;8.552;2023-03-23T02:26:53;4.03;;;3.53;;
1691;SDS011;843;52.054;8.552;2023-03-23T02:32:12;3.70;;;2.90;;
1691;SDS011;843;52.054;8.552;2023-03-23T02:34:43;5.27;;;2.87;;
1691;SDS011;843;52.054;8.552;2023-03-23T02:37:13;2.60;;;2.37;;
1691;SDS011;843;52.054;8.552;2023-03-23T02:39:43;5.53;;;3.40;;
1691;SDS011;843;52.054;8.552;2023-03-23T02:42:11;4.37;;;2.93;;
1691;SDS011;843;52.054;8.552;2023-03-23T02:44:40;4.80;;;3.30;;
1691;SDS011;843;52.054;8.552;2023-03-23T02:47:09;5.33;;;3.10;;
1691;SDS011;843;52.054;8.552;2023-03-23T02:49:37;5.50;;;2.53;;
1691;SDS011;843;52.054;8.552;2023-03-23T02:52:08;4.67;;;2.87;;
1691;SDS011;843;52.054;8.552;2023-03-23T02:54:37;3.40;;;3.00;;
1691;SDS011;843;52.054;8.552;2023-03-23T02:57:04;2.80;;;2.53;;
1691;SDS011;843;52.054;8.552;2023-03-23T02:59:31;6.03;;;3.30;;
1691;SDS011;843;52.054;8.552;2023-03-23T03:02:00;3.00;;;2.20;;
1691;SDS011;843;52.054;8.552;2023-03-23T03:04:27;2.57;;;2.37;;
1691;SDS011;843;52.054;8.552;2023-03-23T03:06:57;4.60;;;2.23;;
1691;SDS011;843;52.054;8.552;2023-03-23T03:09:30;5.57;;;2.77;;
1691;SDS011;843;52.054;8.552;2023-03-23T03:12:01;4.13;;;2.20;;
1691;SDS011;843;52.054;8.552;2023-03-23T03:14:31;3.43;;;2.37;;
1691;SDS011;843;52.054;8.552;2023-03-23T03:17:00;3.00;;;2.17;;
1691;SDS011;843;52.054;8.552;2023-03-23T03:19:32;7.87;;;2.30;;
1691;SDS011;843;52.054;8.552;2023-03-23T03:22:01;3.57;;;2.50;;
1691;SDS011;843;52.054;8.552;2023-03-23T03:24:31;4.03;;;2.90;;
1691;SDS011;843;52.054;8.552;2023-03-23T03:26:58;4.57;;;2.17;;
1691;SDS011;843;52.054;8.552;2023-03-23T03:29:26;2.50;;;2.13;;
1691;SDS011;843;52.054;8.552;2023-03-23T03:31:55;3.80;;;2.00;;
1691;SDS011;843;52.054;8.552;2023-03-23T03:34:24;2.90;;;2.23;;
1691;SDS011;843;52.054;8.552;2023-03-23T03:36:51;2.50;;;2.20;;
1691;SDS011;843;52.054;8.552;2023-03-23T03:39:18;2.90;;;2.03;;
1691;SDS011;843;52.054;8.552;2023-03-23T03:41:47;2.10;;;1.90;;
1691;SDS011;843;52.054;8.552;2023-03-23T03:44:13;1.97;;;1.77;;
1691;SDS011;843;52.054;8.552;2023-03-23T03:46:40;4.43;;;1.80;;
1691;SDS011;843;52.054;8.552;2023-03-23T03:49:07;2.80;;;1.97;;
1691;SDS011;843;52.054;8.552;2023-03-23T03:51:34;2.50;;;1.73;;
1691;SDS011;843;52.054;8.552;2023-03-23T03:54:01;3.23;;;2.27;;
1691;SDS011;843;52.054;8.552;2023-03-23T03:56:27;2.77;;;1.53;;
1691;SDS011;843;52.054;8.552;2023-03-23T03:58:55;5.10;;;1.87;;
1691;SDS011;843;52.054;8.552;2023-03-23T04:01:22;2.80;;;2.00;;
1691;SDS011;843;52.054;8.552;2023-03-23T04:03:49;2.17;;;1.93;;
1691;SDS011;843;52.054;8.552;2023-03-23T04:06:16;2.67;;;1.47;;
1691;SDS011;843;52.054;8.552;2023-03-23T04:08:42;2.17;;;1.93;;
1691;SDS011;843;52.054;8.552;2023-03-23T04:11:10;4.10;;;2.10;;
1691;SDS011;843;52.054;8.552;2023-03-23T04:13:37;2.33;;;1.67;;
1691;SDS011;843;52.054;8.552;2023-03-23T04:16:05;4.93;;;2.30;;
1691;SDS011;843;52.054;8.552;2023-03-23T04:18:32;3.57;;;2.10;;
1691;SDS011;843;52.054;8.552;2023-03-23T04:20:59;4.13;;;2.33;;
1691;SDS011;843;52.054;8.552;2023-03-23T04:23:26;2.23;;;1.43;;
1691;SDS011;843;52.054;8.552;2023-03-23T04:25:53;2.83;;;1.93;;
1691;SDS011;843;52.054;8.552;2023-03-23T04:28:22;3.53;;;2.00;;
1691;SDS011;843;52.054;8.552;2023-03-23T04:30:48;2.53;;;1.90;;
1691;SDS011;843;52.054;8.552;2023-03-23T04:33:19;3.03;;;1.90;;
1691;SDS011;843;52.054;8.552;2023-03-23T04:35:46;3.40;;;2.40;;
1691;SDS011;843;52.054;8.552;2023-03-23T04:38:14;3.20;;;1.60;;
1691;SDS011;843;52.054;8.552;2023-03-23T04:40:41;1.90;;;1.60;;
1691;SDS011;843;52.054;8.552;2023-03-23T04:43:08;1.70;;;1.60;;
1691;SDS011;843;52.054;8.552;2023-03-23T04:45:38;3.23;;;1.70;;
1691;SDS011;843;52.054;8.552;2023-03-23T04:48:06;1.80;;;1.53;;
1691;SDS011;843;52.054;8.552;2023-03-23T04:50:34;2.03;;;1.50;;
1691;SDS011;843;52.054;8.552;2023-03-23T04:53:01;2.27;;;1.63;;
1691;SDS011;843;52.054;8.552;2023-03-23T04:55:29;5.80;;;2.20;;
1691;SDS011;843;52.054;8.552;2023-03-23T04:57:56;1.90;;;1.70;;
1691;SDS011;843;52.054;8.552;2023-03-23T05:00:25;4.63;;;2.57;;
1691;SDS011;843;52.054;8.552;2023-03-23T05:02:52;1.77;;;1.43;;
1691;SDS011;843;52.054;8.552;2023-03-23T05:05:20;1.90;;;1.57;;
1691;SDS011;843;52.054;8.552;2023-03-23T05:07:48;2.27;;;1.87;;
1691;SDS011;843;52.054;8.552;2023-03-23T05:10:15;2.03;;;1.60;;
1691;SDS011;843;52.054;8.552;2023-03-23T05:12:42;1.83;;;1.73;;
1691;SDS011;843;52.054;8.552;2023-03-23T05:15:09;3.60;;;2.53;;
1691;SDS011;843;52.054;8.552;2023-03-23T05:17:36;3.20;;;1.80;;
1691;SDS011;843;52.054;8.552;2023-03-23T05:20:03;3.27;;;2.03;;
1691;SDS011;843;52.054;8.552;2023-03-23T05:22:31;3.70;;;2.13;;
1691;SDS011;843;52.054;8.552;2023-03-23T05:24:59;4.37;;;2.43;;
1691;SDS011;843;52.054;8.552;2023-03-23T05:27:27;1.77;;;1.53;;
1691;SDS011;843;52.054;8.552;2023-03-23T05:29:55;3.77;;;2.00;;
1691;SDS011;843;52.054;8.552;2023-03-23T05:32:23;2.63;;;1.97;;
1691;SDS011;843;52.054;8.552;2023-03-23T05:34:53;4.57;;;2.13;;
1691;SDS011;843;52.054;8.552;2023-03-23T05:37:20;2.10;;;1.77;;
1691;SDS011;843;52.054;8.552;2023-03-23T05:39:46;2.90;;;1.90;;
1691;SDS011;843;52.054;8.552;2023-03-23T05:42:14;3.07;;;2.00;;
1691;SDS011;843;52.054;8.552;2023-03-23T05:44:40;2.00;;;1.80;;
1691;SDS011;843;52.054;8.552;2023-03-23T05:47:07;2.33;;;1.90;;
1691;SDS011;843;52.054;8.552;2023-03-23T05:49:33;2.63;;;1.70;;
1691;SDS011;843;52.054;8.552;2023-03-23T05:52:01;2.33;;;1.67;;
1691;SDS011;843;52.054;8.552;2023-03-23T05:54:27;2.20;;;2.00;;
1691;SDS011;843;52.054;8.552;2023-03-23T05:56:54;2.20;;;2.00;;
1691;SDS011;843;52.054;8.552;2023-03-23T05:59:22;3.43;;;2.20;;
1691;SDS011;843;52.054;8.552;2023-03-23T06:01:48;1.70;;;1.60;;
1691;SDS011;843;52.054;8.552;2023-03-23T06:04:14;3.27;;;1.83;;
1691;SDS011;843;52.054;8.552;2023-03-23T06:06:42;3.87;;;1.87;;
1691;SDS011;843;52.054;8.552;2023-03-23T06:09:09;2.03;;;1.50;;
1691;SDS011;843;52.054;8.552;2023-03-23T06:11:36;3.13;;;2.40;;
1691;SDS011;843;52.054;8.552;2023-03-23T06:14:03;2.50;;;1.80;;
1691;SDS011;843;52.054;8.552;2023-03-23T06:16:31;4.60;;;2.07;;
1691;SDS011;843;52.054;8.552;2023-03-23T06:18:57;3.87;;;2.00;;
1691;SDS011;843;52.054;8.552;2023-03-23T06:21:25;4.23;;;2.43;;
1691;SDS011;843;52.054;8.552;2023-03-23T06:23:52;4.17;;;2.30;;
1691;SDS011;843;52.054;8.552;2023-03-23T06:26:19;6.10;;;2.50;;
1691;SDS011;843;52.054;8.552;2023-03-23T06:28:46;5.30;;;2.30;;
1691;SDS011;843;52.054;8.552;2023-03-23T06:31:12;3.70;;;2.30;;
1691;SDS011;843;52.054;8.552;2023-03-23T06:33:41;4.17;;;2.20;;
1691;SDS011;843;52.054;8.552;2023-03-23T06:36:07;3.13;;;2.80;;
1691;SDS011;843;52.054;8.552;2023-03-23T06:38:36;3.90;;;2.60;;
1691;SDS011;843;52.054;8.552;2023-03-23T06:41:03;3.13;;;2.20;;
1691;SDS011;843;52.054;8.552;2023-03-23T06:43:29;3.90;;;2.33;;
1691;SDS011;843;52.054;8.552;2023-03-23T06:45:58;4.50;;;2.50;;
1691;SDS011;843;52.054;8.552;2023-03-23T06:48:24;3.10;;;2.10;;
1691;SDS011;843;52.054;8.552;2023-03-23T06:50:53;3.60;;;2.17;;
1691;SDS011;843;52.054;8.552;2023-03-23T06:53:19;3.47;;;2.77;;
1691;SDS011;843;52.054;8.552;2023-03-23T06:55:46;4.00;;;2.40;;
1691;SDS011;843;52.054;8.552;2023-03-23T06:58:12;3.90;;;2.23;;
1691;SDS011;843;52.054;8.552;2023-03-23T07:00:39;3.67;;;2.57;;
1691;SDS011;843;52.054;8.552;2023-03-23T07:03:06;2.83;;;2.53;;
1691;SDS011;843;52.054;8.552;2023-03-23T07:05:33;2.80;;;2.43;;
1691;SDS011;843;52.054;8.552;2023-03-23T07:08:01;2.10;;;1.90;;
1691;SDS011;843;52.054;8.552;2023-03-23T07:10:28;4.40;;;2.20;;
1691;SDS011;843;52.054;8.552;2023-03-23T07:12:54;5.00;;;2.60;;
1691;SDS011;843;52.054;8.552;2023-03-23T07:15:21;2.90;;;2.60;;
1691;SDS011;843;52.054;8.552;2023-03-23T07:17:48;4.47;;;2.70;;
1691;SDS011;843;52.054;8.552;2023-03-23T07:20:15;2.37;;;2.17;;
1691;SDS011;843;52.054;8.552;2023-03-23T07:22:41;3.23;;;2.40;;
1691;SDS011;843;52.054;8.552;2023-03-23T07:25:09;3.73;;;2.47;;
1691;SDS011;843;52.054;8.552;2023-03-23T07:27:36;4.57;;;2.47;;
1691;SDS011;843;52.054;8.552;2023-03-23T07:30:03;4.27;;;2.13;;
1691;SDS011;843;52.054;8.552;2023-03-23T07:32:29;4.50;;;2.40;;
1691;SDS011;843;52.054;8.552;2023-03-23T07:34:56;5.43;;;2.53;;
1691;SDS011;843;52.054;8.552;2023-03-23T07:37:23;5.13;;;2.20;;
1691;SDS011;843;52.054;8.552;2023-03-23T07:39:50;3.73;;;2.27;;
1691;SDS011;843;52.054;8.552;2023-03-23T07:42:18;5.10;;;2.30;;
1691;SDS011;843;52.054;8.552;2023-03-23T07:44:44;3.00;;;2.40;;
1691;SDS011;843;52.054;8.552;2023-03-23T07:47:11;3.03;;;2.20;;
1691;SDS011;843;52.054;8.552;2023-03-23T07:49:38;3.77;;;2.33;;
1691;SDS011;843;52.054;8.552;2023-03-23T07:52:05;2.63;;;2.40;;
1691;SDS011;843;52.054;8.552;2023-03-23T07:54:32;2.00;;;1.80;;
1691;SDS011;843;52.054;8.552;2023-03-23T07:56:59;4.27;;;2.10;;
1691;SDS011;843;52.054;8.552;2023-03-23T07:59:27;6.30;;;2.70;;
1691;SDS011;843;52.054;8.552;2023-03-23T08:01:54;4.07;;;2.30;;
1691;SDS011;843;52.054;8.552;2023-03-23T08:04:23;2.70;;;2.50;;
1691;SDS011;843;52.054;8.552;2023-03-23T08:06:52;6.73;;;2.57;;
1691;SDS011;843;52.054;8.552;2023-03-23T08:09:18;2.70;;;2.20;;
1691;SDS011;843;52.054;8.552;2023-03-23T08:11:45;5.83;;;2.70;;
1691;SDS011;843;52.054;8.552;2023-03-23T08:14:13;3.53;;;2.43;;
1691;SDS011;843;52.054;8.552;2023-03-23T08:16:41;7.53;;;2.67;;
1691;SDS011;843;52.054;8.552;2023-03-23T08:19:07;6.60;;;2.87;;
1691;SDS011;843;52.054;8.552;2023-03-23T08:21:34;4.47;;;2.70;;
1691;SDS011;843;52.054;8.552;2023-03-23T08:24:00;6.00;;;2.70;;
1691;SDS011;843;52.054;8.552;2023-03-23T08:26:27;9.03;;;2.60;;
1691;SDS011;843;52.054;8.552;2023-03-23T08:28:54;4.97;;;2.90;;
1691;SDS011;843;52.054;8.552;2023-03-23T08:31:21;4.83;;;2.90;;
1691;SDS011;843;52.054;8.552;2023-03-23T08:33:48;3.70;;;2.43;;
1691;SDS011;843;52.054;8.552;2023-03-23T08:36:15;3.40;;;2.93;;
1691;SDS011;843;52.054;8.552;2023-03-23T08:38:41;3.87;;;2.90;;
1691;SDS011;843;52.054;8.552;2023-03-23T08:41:09;9.33;;;3.00;;
1691;SDS011;843;52.054;8.552;2023-03-23T08:43:35;4.80;;;2.83;;
1691;SDS011;843;52.054;8.552;2023-03-23T08:46:03;6.80;;;2.23;;
1691;SDS011;843;52.054;8.552;2023-03-23T08:48:34;3.53;;;2.30;;
1691;SDS011;843;52.054;8.552;2023-03-23T08:51:02;7.70;;;2.80;;
1691;SDS011;843;52.054;8.552;2023-03-23T08:53:28;4.30;;;2.33;;
1691;SDS011;843;52.054;8.552;2023-03-23T08:55:56;3.67;;;2.57;;
1691;SDS011;843;52.054;8.552;2023-03-23T08:58:22;5.40;;;2.67;;
1691;SDS011;843;52.054;8.552;2023-03-23T09:00:49;7.90;;;2.77;;
1691;SDS011;843;52.054;8.552;2023-03-23T09:03:15;6.57;;;3.80;;
1691;SDS011;843;52.054;8.552;2023-03-23T09:05:42;4.17;;;2.10;;
1691;SDS011;843;52.054;8.552;2023-03-23T09:08:12;8.27;;;2.07;;
1691;SDS011;843;52.054;8.552;2023-03-23T09:10:38;7.43;;;2.03;;
1691;SDS011;843;52.054;8.552;2023-03-23T09:13:05;8.20;;;2.97;;
1691;SDS011;843;52.054;8.552;2023-03-23T09:15:31;6.97;;;2.47;;
1691;SDS011;843;52.054;8.552;2023-03-23T09:17:58;5.10;;;1.93;;
1691;SDS011;843;52.054;8.552;2023-03-23T09:20:26;3.63;;;2.40;;
1691;SDS011;843;52.054;8.552;2023-03-23T09:22:53;2.50;;;1.90;;
1691;SDS011;843;52.054;8.552;2023-03-23T09:25:23;6.27;;;2.30;;
1691;SDS011;843;52.054;8.552;2023-03-23T09:27:50;5.50;;;2.30;;
1691;SDS011;843;52.054;8.552;2023-03-23T09:30:22;3.87;;;2.07;;
1691;SDS011;843;52.054;8.552;2023-03-23T09:32:49;5.30;;;2.10;;
1691;SDS011;843;52.054;8.552;2023-03-23T09:35:15;5.43;;;2.10;;
1691;SDS011;843;52.054;8.552;2023-03-23T09:37:42;4.03;;;2.17;;
1691;SDS011;843;52.054;8.552;2023-03-23T09:40:10;5.93;;;2.17;;
1691;SDS011;843;52.054;8.552;2023-03-23T09:42:51;6.63;;;2.50;;
1691;SDS011;843;52.054;8.552;2023-03-23T09:45:23;4.13;;;2.30;;
1691;SDS011;843;52.054;8.552;2023-03-23T09:47:57;4.03;;;1.90;;
1691;SDS011;843;52.054;8.552;2023-03-23T09:50:27;3.20;;;1.83;;
1691;SDS011;843;52.054;8.552;2023-03-23T09:52:58;3.60;;;2.20;;
1691;SDS011;843;52.054;8.552;2023-03-23T09:55:25;5.90;;;2.57;;
1691;SDS011;843;52.054;8.552;2023-03-23T09:57:55;4.47;;;1.90;;
1691;SDS011;843;52.054;8.552;2023-03-23T10:00:24;4.70;;;2.00;;
1691;SDS011;843;52.054;8.552;2023-03-23T10:02:52;3.87;;;2.57;;
1691;SDS011;843;52.054;8.552;2023-03-23T10:05:27;4.90;;;2.10;;
1691;SDS011;843;52.054;8.552;2023-03-23T10:07:55;4.90;;;2.70;;
1691;SDS011;843;52.054;8.552;2023-03-23T10:10:22;4.13;;;2.33;;
1691;SDS011;843;52.054;8.552;2023-03-23T10:12:52;2.70;;;1.97;;
1691;SDS011;843;52.054;8.552;2023-03-23T10:15:30;7.00;;;2.23;;
1691;SDS011;843;52.054;8.552;2023-03-23T10:17:59;4.47;;;2.40;;
1691;SDS011;843;52.054;8.552;2023-03-23T10:20:34;4.07;;;2.77;;
1691;SDS011;843;52.054;8.552;2023-03-23T10:23:05;4.80;;;2.40;;
1691;SDS011;843;52.054;8.552;2023-03-23T10:25:34;10.90;;;2.37;;
1691;SDS011;843;52.054;8.552;2023-03-23T10:28:02;3.57;;;1.67;;
1691;SDS011;843;52.054;8.552;2023-03-23T10:30:33;4.63;;;1.90;;
1691;SDS011;843;52.054;8.552;2023-03-23T10:33:01;5.10;;;2.57;;
1691;SDS011;843;52.054;8.552;2023-03-23T10:35:29;5.40;;;2.00;;
1691;SDS011;843;52.054;8.552;2023-03-23T10:37:59;4.10;;;2.20;;
1691;SDS011;843;52.054;8.552;2023-03-23T10:40:27;7.50;;;2.43;;
1691;SDS011;843;52.054;8.552;2023-03-23T10:42:54;3.87;;;1.80;;
1691;SDS011;843;52.054;8.552;2023-03-23T10:45:21;4.40;;;2.47;;
1691;SDS011;843;52.054;8.552;2023-03-23T10:47:52;5.80;;;2.50;;
1691;SDS011;843;52.054;8.552;2023-03-23T10:50:22;4.53;;;1.97;;
1691;SDS011;843;52.054;8.552;2023-03-23T10:52:49;3.30;;;2.23;;
1691;SDS011;843;52.054;8.552;2023-03-23T10:55:18;4.37;;;1.60;;
1691;SDS011;843;52.054;8.552;2023-03-23T10:57:45;2.97;;;0.80;;
1691;SDS011;843;52.054;8.552;2023-03-23T11:00:17;1.97;;;0.80;;
1691;SDS011;843;52.054;8.552;2023-03-23T11:02:45;1.90;;;0.80;;
1691;SDS011;843;52.054;8.552;2023-03-23T11:05:21;2.93;;;0.70;;
1691;SDS011;843;52.054;8.552;2023-03-23T11:07:50;2.17;;;0.80;;
1691;SDS011;843;52.054;8.552;2023-03-23T11:10:20;1.70;;;0.67;;
1691;SDS011;843;52.054;8.552;2023-03-23T11:12:47;1.30;;;0.60;;
1691;SDS011;843;52.054;8.552;2023-03-23T11:15:21;2.43;;;0.67;;
1691;SDS011;843;52.054;8.552;2023-03-23T11:17:54;2.13;;;0.80;;
1691;SDS011;843;52.054;8.552;2023-03-23T11:20:22;0.90;;;0.40;;
1691;SDS011;843;52.054;8.552;2023-03-23T11:22:49;4.00;;;0.50;;
1691;SDS011;843;52.054;8.552;2023-03-23T11:25:15;1.90;;;0.60;;
1691;SDS011;843;52.054;8.552;2023-03-23T11:27:42;1.03;;;0.63;;
1691;SDS011;843;52.054;8.552;2023-03-23T11:30:10;2.30;;;0.60;;
1691;SDS011;843;52.054;8.552;2023-03-23T11:32:37;1.67;;;1.13;;
1691;SDS011;843;52.054;8.552;2023-03-23T11:35:04;1.50;;;0.70;;
1691;SDS011;843;52.054;8.552;2023-03-23T11:37:35;1.50;;;0.87;;
1691;SDS011;843;52.054;8.552;2023-03-23T11:40:02;2.30;;;1.00;;
1691;SDS011;843;52.054;8.552;2023-03-23T11:42:38;2.70;;;1.50;;
1691;SDS011;843;52.054;8.552;2023-03-23T11:45:15;1.40;;;0.83;;
1691;SDS011;843;52.054;8.552;2023-03-23T11:47:43;3.67;;;0.83;;
1691;SDS011;843;52.054;8.552;2023-03-23T11:50:14;4.00;;;0.60;;
1691;SDS011;843;52.054;8.552;2023-03-23T11:52:44;2.37;;;0.77;;
1691;SDS011;843;52.054;8.552;2023-03-23T11:55:13;2.20;;;0.80;;
1691;SDS011;843;52.054;8.552;2023-03-23T11:57:40;0.83;;;0.63;;
1691;SDS011;843;52.054;8.552;2023-03-23T12:00:11;4.30;;;0.80;;
1691;SDS011;843;52.054;8.552;2023-03-23T12:02:42;2.73;;;0.87;;
1691;SDS011;843;52.054;8.552;2023-03-23T12:05:27;1.90;;;0.77;;
1691;SDS011;843;52.054;8.552;2023-03-23T12:08:01;1.37;;;0.80;;
1691;SDS011;843;52.054;8.552;2023-03-23T12:10:32;4.13;;;1.10;;
1691;SDS011;843;52.054;8.552;2023-03-23T12:13:05;2.07;;;0.97;;
1691;SDS011;843;52.054;8.552;2023-03-23T12:15:34;3.67;;;1.07;;
1691;SDS011;843;52.054;8.552;2023-03-23T12:18:06;2.83;;;1.10;;
1691;SDS011;843;52.054;8.552;2023-03-23T12:20:38;2.50;;;0.90;;
1691;SDS011;843;52.054;8.552;2023-03-23T12:23:11;1.73;;;1.20;;
1691;SDS011;843;52.054;8.552;2023-03-23T12:25:45;2.40;;;1.10;;
1691;SDS011;843;52.054;8.552;2023-03-23T12:28:15;1.73;;;0.90;;
1691;SDS011;843;52.054;8.552;2023-03-23T12:30:44;1.70;;;0.73;;
1691;SDS011;843;52.054;8.552;2023-03-23T12:33:17;6.17;;;1.40;;
1691;SDS011;843;52.054;8.552;2023-03-23T12:35:48;2.93;;;1.10;;
1691;SDS011;843;52.054;8.552;2023-03-23T12:41:07;1.47;;;0.83;;
1691;SDS011;843;52.054;8.552;2023-03-23T12:43:36;3.23;;;1.30;;
1691;SDS011;843;52.054;8.552;2023-03-23T12:46:11;6.03;;;1.33;;
1691;SDS011;843;52.054;8.552;2023-03-23T12:48:42;1.63;;;1.10;;
1691;SDS011;843;52.054;8.552;2023-03-23T12:51:12;4.90;;;1.20;;
1691;SDS011;843;52.054;8.552;2023-03-23T12:53:42;5.10;;;1.43;;
1691;SDS011;843;52.054;8.552;2023-03-23T12:56:14;6.43;;;2.63;;
1691;SDS011;843;52.054;8.552;2023-03-23T12:58:44;4.10;;;1.17;;
1691;SDS011;843;52.054;8.552;2023-03-23T13:01:12;3.00;;;1.40;;
1691;SDS011;843;52.054;8.552;2023-03-23T13:03:44;2.27;;;0.83;;
1691;SDS011;843;52.054;8.552;2023-03-23T13:06:12;3.07;;;1.00;;
1691;SDS011;843;52.054;8.552;2023-03-23T13:08:44;3.23;;;0.67;;
1691;SDS011;843;52.054;8.552;2023-03-23T13:11:17;2.53;;;0.80;;
1691;SDS011;843;52.054;8.552;2023-03-23T13:13:47;3.80;;;0.80;;
1691;SDS011;843;52.054;8.552;2023-03-23T13:16:18;1.20;;;0.77;;
1691;SDS011;843;52.054;8.552;2023-03-23T13:18:49;1.63;;;0.90;;
1691;SDS011;843;52.054;8.552;2023-03-23T13:21:21;2.00;;;0.87;;
1691;SDS011;843;52.054;8.552;2023-03-23T13:23:52;1.47;;;1.00;;
1691;SDS011;843;52.054;8.552;2023-03-23T13:26:22;1.43;;;0.80;;
1691;SDS011;843;52.054;8.552;2023-03-23T13:28:51;1.80;;;1.00;;
1691;SDS011;843;52.054;8.552;2023-03-23T13:31:20;1.73;;;1.00;;
1691;SDS011;843;52.054;8.552;2023-03-23T13:33:51;2.23;;;1.10;;
1691;SDS011;843;52.054;8.552;2023-03-23T13:36:19;1.60;;;1.27;;
1691;SDS011;843;52.054;8.552;2023-03-23T13:38:50;2.43;;;1.50;;
1691;SDS011;843;52.054;8.552;2023-03-23T13:41:17;1.50;;;1.33;;
1691;SDS011;843;52.054;8.552;2023-03-23T13:43:48;1.60;;;1.23;;
1691;SDS011;843;52.054;8.552;2023-03-23T13:46:25;2.33;;;1.57;;
1691;SDS011;843;52.054;8.552;2023-03-23T13:49:02;2.10;;;1.83;;
1691;SDS011;843;52.054;8.552;2023-03-23T13:51:34;1.93;;;1.00;;
1691;SDS011;843;52.054;8.552;2023-03-23T13:56:52;2.90;;;1.50;;
1691;SDS011;843;52.054;8.552;2023-03-23T13:59:30;1.40;;;1.17;;
1691;SDS011;843;52.054;8.552;2023-03-23T14:04:44;2.00;;;1.50;;
1691;SDS011;843;52.054;8.552;2023-03-23T14:07:15;4.13;;;1.73;;
1691;SDS011;843;52.054;8.552;2023-03-23T14:09:44;3.27;;;1.77;;
1691;SDS011;843;52.054;8.552;2023-03-23T14:12:14;2.90;;;1.70;;
1691;SDS011;843;52.054;8.552;2023-03-23T14:14:42;5.20;;;1.70;;
1691;SDS011;843;52.054;8.552;2023-03-23T14:17:11;2.43;;;2.00;;
1691;SDS011;843;52.054;8.552;2023-03-23T14:19:38;2.97;;;2.00;;
1691;SDS011;843;52.054;8.552;2023-03-23T14:22:15;3.23;;;2.10;;
1691;SDS011;843;52.054;8.552;2023-03-23T14:24:42;3.67;;;2.40;;
1691;SDS011;843;52.054;8.552;2023-03-23T14:27:10;3.07;;;2.33;;
1691;SDS011;843;52.054;8.552;2023-03-23T14:29:36;7.30;;;2.70;;
1691;SDS011;843;52.054;8.552;2023-03-23T14:32:05;4.67;;;2.00;;
1691;SDS011;843;52.054;8.552;2023-03-23T14:34:31;2.30;;;2.10;;
1691;SDS011;843;52.054;8.552;2023-03-23T14:36:59;3.03;;;2.20;;
1691;SDS011;843;52.054;8.552;2023-03-23T14:39:26;5.50;;;3.43;;
1691;SDS011;843;52.054;8.552;2023-03-23T14:41:54;4.67;;;3.40;;
1691;SDS011;843;52.054;8.552;2023-03-23T14:44:23;4.73;;;4.23;;
1691;SDS011;843;52.054;8.552;2023-03-23T14:46:50;5.30;;;3.63;;
1691;SDS011;843;52.054;8.552;2023-03-23T14:49:19;5.10;;;3.60;;
1691;SDS011;843;52.054;8.552;2023-03-23T14:51:46;3.63;;;3.33;;
1691;SDS011;843;52.054;8.552;2023-03-23T14:54:13;4.70;;;3.30;;
1691;SDS011;843;52.054;8.552;2023-03-23T14:56:40;5.97;;;2.87;;
1691;SDS011;843;52.054;8.552;2023-03-23T14:59:09;4.00;;;2.97;;
1691;SDS011;843;52.054;8.552;2023-03-23T15:01:37;4.50;;;3.37;;
1691;SDS011;843;52.054;8.552;2023-03-23T15:04:05;3.57;;;3.23;;
1691;SDS011;843;52.054;8.552;2023-03-23T15:06:34;4.93;;;4.20;;
1691;SDS011;843;52.054;8.552;2023-03-23T15:09:01;5.30;;;3.93;;
1691;SDS011;843;52.054;8.552;2023-03-23T15:11:29;4.20;;;3.60;;
1691;SDS011;843;52.054;8.552;2023-03-23T15:13:56;3.90;;;3.60;;
1691;SDS011;843;52.054;8.552;2023-03-23T15:16:25;4.27;;;3.63;;
1691;SDS011;843;52.054;8.552;2023-03-23T15:18:53;4.57;;;4.17;;
1691;SDS011;843;52.054;8.552;2023-03-23T15:21:22;4.23;;;3.53;;
1691;SDS011;843;52.054;8.552;2023-03-23T15:23:50;3.73;;;3.20;;
1691;SDS011;843;52.054;8.552;2023-03-23T15:26:25;4.00;;;3.23;;
1691;SDS011;843;52.054;8.552;2023-03-23T15:29:00;5.33;;;3.30;;
1691;SDS011;843;52.054;8.552;2023-03-23T15:31:26;4.07;;;3.40;;
1691;SDS011;843;52.054;8.552;2023-03-23T15:33:55;6.33;;;3.57;;
1691;SDS011;843;52.054;8.552;2023-03-23T15:36:23;3.87;;;3.23;;
1691;SDS011;843;52.054;8.552;2023-03-23T15:38:51;3.73;;;2.77;;
1691;SDS011;843;52.054;8.552;2023-03-23T15:41:23;4.30;;;3.40;;
1691;SDS011;843;52.054;8.552;2023-03-23T15:43:50;7.40;;;3.67;;
1691;SDS011;843;52.054;8.552;2023-03-23T15:46:21;4.40;;;2.63;;
1691;SDS011;843;52.054;8.552;2023-03-23T15:48:48;3.87;;;2.60;;
1691;SDS011;843;52.054;8.552;2023-03-23T15:51:15;7.80;;;2.40;;
1691;SDS011;843;52.054;8.552;2023-03-23T15:53:42;5.57;;;2.67;;